Time;durP1;ratioP1;P1;durP2;ratioP2;P2;SDS_P1;SDS_P2;PMS_P1;PMS_P2;Temp;Humidity;BMP_temperature;BMP_pressure;BME280_temperature;BME280_humidity;BME280_pressure;Samples;Min_cycle;Max_cycle;Signal;HPM_P1;HPM_P2
2021/03/14 00:01:49;;;;;;;24.35;3.30;;;;;;;;;;5040430;28;20476;-82
2021/03/14 00:04:15;;;;;;;30.35;3.72;;;;;;;;;;5038726;28;20033;-82
2021/03/14 00:06:42;;;;;;;23.63;4.05;;;;;;;;;;5041389;28;20152;-82
2021/03/14 00:09:08;;;;;;;20.50;4.28;;;;;;;;;;5040154;28;20149;-83
2021/03/14 00:11:34;;;;;;;23.48;4.68;;;;;;;;;;5036039;28;21185;-83
2021/03/14 00:14:01;;;;;;;24.42;3.28;;;;;;;;;;5040787;28;20040;-83
2021/03/14 00:16:27;;;;;;;28.92;4.85;;;;;;;;;;5041967;28;20037;-82
2021/03/14 00:18:54;;;;;;;33.88;3.08;;;;;;;;;;5036442;28;20089;-83
2021/03/14 00:21:22;;;;;;;26.25;6.18;;;;;;;;;;5039620;28;20558;-82
2021/03/14 00:23:48;;;;;;;29.95;4.47;;;;;;;;;;5038949;28;20041;-83
2021/03/14 00:26:15;;;;;;;27.13;4.55;;;;;;;;;;5039220;28;20128;-82
2021/03/14 00:28:41;;;;;;;24.25;4.20;;;;;;;;;;5035417;28;20037;-83
2021/03/14 00:31:08;;;;;;;29.98;4.60;;;;;;;;;;5039183;28;20049;-83
2021/03/14 00:33:34;;;;;;;21.33;3.40;;;;;;;;;;5035924;28;20037;-83
2021/03/14 00:36:00;;;;;;;22.02;3.85;;;;;;;;;;5040675;28;20128;-83
2021/03/14 00:38:26;;;;;;;25.60;3.90;;;;;;;;;;5036405;28;20043;-82
2021/03/14 00:40:53;;;;;;;30.55;3.17;;;;;;;;;;5037215;28;20045;-82
2021/03/14 00:43:19;;;;;;;28.98;3.47;;;;;;;;;;5039378;28;20068;-82
2021/03/14 00:45:45;;;;;;;23.13;3.95;;;;;;;;;;5038048;28;20789;-83
2021/03/14 00:48:12;;;;;;;20.25;3.38;;;;;;;;;;5038885;28;20053;-83
2021/03/14 00:50:39;;;;;;;24.90;4.75;;;;;;;;;;5041148;28;20080;-83
2021/03/14 00:53:05;;;;;;;32.45;4.32;;;;;;;;;;5041440;28;20037;-83
2021/03/14 00:55:32;;;;;;;29.75;4.25;;;;;;;;;;5041963;28;20055;-83
2021/03/14 00:57:58;;;;;;;31.13;3.97;;;;;;;;;;5052223;28;20185;-83
2021/03/14 01:00:25;;;;;;;30.17;3.72;;;;;;;;;;5036200;28;20094;-81
2021/03/14 01:02:51;;;;;;;30.52;4.75;;;;;;;;;;5034239;28;20048;-82
2021/03/14 01:05:18;;;;;;;28.88;3.60;;;;;;;;;;5038078;28;20052;-82
2021/03/14 01:07:44;;;;;;;26.23;3.75;;;;;;;;;;5038355;28;20041;-83
2021/03/14 01:10:11;;;;;;;30.40;4.38;;;;;;;;;;5038915;28;20045;-83
2021/03/14 01:12:39;;;;;;;21.02;3.17;;;;;;;;;;5034681;28;20057;-83
2021/03/14 01:15:08;;;;;;;24.77;3.67;;;;;;;;;;5037386;28;20040;-83
2021/03/14 01:17:34;;;;;;;33.25;4.55;;;;;;;;;;5037355;28;20130;-83
2021/03/14 01:20:01;;;;;;;22.10;3.67;;;;;;;;;;5036533;28;20040;-83
2021/03/14 01:22:28;;;;;;;35.13;4.82;;;;;;;;;;5033212;28;20122;-82
2021/03/14 01:24:54;;;;;;;29.80;3.65;;;;;;;;;;5038699;28;20094;-83
2021/03/14 01:27:20;;;;;;;20.75;3.47;;;;;;;;;;5042856;28;20041;-82
2021/03/14 01:29:46;;;;;;;27.33;4.70;;;;;;;;;;5040760;28;20091;-83
2021/03/14 01:32:13;;;;;;;25.15;5.15;;;;;;;;;;5037200;28;20051;-83
2021/03/14 01:34:39;;;;;;;30.60;5.00;;;;;;;;;;5033866;28;20075;-83
2021/03/14 01:37:05;;;;;;;36.90;6.45;;;;;;;;;;5038251;28;20040;-83
2021/03/14 01:39:32;;;;;;;23.88;4.32;;;;;;;;;;5041583;28;20052;-83
2021/03/14 01:41:58;;;;;;;33.83;3.92;;;;;;;;;;5041031;28;20557;-83
2021/03/14 01:44:24;;;;;;;28.70;4.00;;;;;;;;;;5039201;28;20053;-82
2021/03/14 01:46:51;;;;;;;25.77;4.63;;;;;;;;;;5041730;28;20125;-82
2021/03/14 01:49:17;;;;;;;27.27;3.75;;;;;;;;;;5034227;28;20099;-82
2021/03/14 01:51:43;;;;;;;33.88;3.55;;;;;;;;;;5034189;28;20132;-83
2021/03/14 01:54:10;;;;;;;23.90;4.85;;;;;;;;;;5038219;28;21225;-84
2021/03/14 01:56:36;;;;;;;24.88;3.15;;;;;;;;;;5036299;28;20048;-83
2021/03/14 01:59:03;;;;;;;21.83;4.78;;;;;;;;;;5039959;28;20061;-83
2021/03/14 02:01:29;;;;;;;31.40;5.03;;;;;;;;;;5036064;28;20502;-83
2021/03/14 02:03:56;;;;;;;30.75;4.47;;;;;;;;;;5028519;28;20124;-83
2021/03/14 02:06:22;;;;;;;21.55;3.58;;;;;;;;;;5043257;28;20053;-83
2021/03/14 02:08:48;;;;;;;39.25;4.40;;;;;;;;;;5041007;28;20048;-82
2021/03/14 02:11:15;;;;;;;22.85;4.68;;;;;;;;;;5036399;28;20057;-83
2021/03/14 02:13:42;;;;;;;28.55;5.22;;;;;;;;;;5040659;28;20041;-83
2021/03/14 02:16:11;;;;;;;29.35;4.30;;;;;;;;;;5039792;28;20041;-83
2021/03/14 02:18:40;;;;;;;36.65;4.82;;;;;;;;;;5034277;28;20124;-83
2021/03/14 02:21:07;;;;;;;28.20;4.47;;;;;;;;;;5034053;28;20136;-82
2021/03/14 02:23:47;;;;;;;34.05;3.63;;;;;;;;;;5035135;28;22078;-83
2021/03/14 02:26:13;;;;;;;25.33;4.82;;;;;;;;;;5041930;28;20037;-83
2021/03/14 02:28:40;;;;;;;27.92;4.13;;;;;;;;;;5035530;28;20041;-82
2021/03/14 02:31:07;;;;;;;30.33;4.32;;;;;;;;;;5034966;28;20041;-82
2021/03/14 02:33:34;;;;;;;25.27;3.22;;;;;;;;;;5038933;28;20044;-82
2021/03/14 02:36:01;;;;;;;29.25;3.35;;;;;;;;;;5039127;28;20037;-83
2021/03/14 02:38:28;;;;;;;21.60;3.92;;;;;;;;;;5039695;28;20034;-83
2021/03/14 02:40:56;;;;;;;22.58;4.20;;;;;;;;;;5039010;28;20045;-83
2021/03/14 02:43:24;;;;;;;30.63;5.43;;;;;;;;;;5045371;28;20040;-83
2021/03/14 02:45:50;;;;;;;25.50;4.95;;;;;;;;;;5033994;28;20095;-83
2021/03/14 02:48:17;;;;;;;21.48;4.15;;;;;;;;;;5046032;28;20078;-83
2021/03/14 02:50:44;;;;;;;26.90;4.75;;;;;;;;;;5043738;28;20037;-82
2021/03/14 02:53:11;;;;;;;28.10;4.15;;;;;;;;;;5040946;28;20515;-83
2021/03/14 02:55:37;;;;;;;25.35;4.88;;;;;;;;;;5036068;28;20057;-83
2021/03/14 02:58:04;;;;;;;33.70;5.22;;;;;;;;;;5051712;28;20117;-83
2021/03/14 03:00:32;;;;;;;26.13;5.43;;;;;;;;;;5036153;28;20045;-83
2021/03/14 03:02:58;;;;;;;32.33;5.38;;;;;;;;;;5031284;28;20447;-82
2021/03/14 03:05:26;;;;;;;22.70;4.45;;;;;;;;;;5032221;28;20123;-83
2021/03/14 03:07:54;;;;;;;33.22;5.05;;;;;;;;;;5040512;28;20297;-83
2021/03/14 03:10:20;;;;;;;35.28;5.40;;;;;;;;;;5037764;28;20106;-83
2021/03/14 03:12:48;;;;;;;27.85;3.58;;;;;;;;;;5044048;28;20199;-84
2021/03/14 03:15:15;;;;;;;24.95;4.07;;;;;;;;;;5036478;28;20045;-82
2021/03/14 03:17:43;;;;;;;26.13;4.80;;;;;;;;;;5041737;28;20533;-84
2021/03/14 03:20:10;;;;;;;29.77;6.05;;;;;;;;;;5039626;28;20093;-83
2021/03/14 03:22:37;;;;;;;30.77;4.13;;;;;;;;;;5040918;28;20038;-84
2021/03/14 03:25:04;;;;;;;30.58;5.28;;;;;;;;;;5039103;28;20064;-83
2021/03/14 03:27:31;;;;;;;28.55;5.63;;;;;;;;;;5034481;28;20037;-84
2021/03/14 03:29:57;;;;;;;32.70;5.97;;;;;;;;;;5032240;28;20056;-82
2021/03/14 03:32:23;;;;;;;28.17;4.55;;;;;;;;;;5038714;28;20132;-82
2021/03/14 03:34:49;;;;;;;28.98;5.05;;;;;;;;;;5033353;28;20633;-82
2021/03/14 03:37:16;;;;;;;26.50;4.38;;;;;;;;;;5039790;28;20553;-82
2021/03/14 03:39:42;;;;;;;31.10;4.35;;;;;;;;;;5037305;28;20053;-84
2021/03/14 03:42:10;;;;;;;36.13;5.82;;;;;;;;;;5037793;28;20164;-83
2021/03/14 03:44:38;;;;;;;26.48;4.13;;;;;;;;;;5036251;28;21592;-84
2021/03/14 03:47:05;;;;;;;36.30;4.05;;;;;;;;;;5036048;28;20051;-84
2021/03/14 03:49:32;;;;;;;25.90;5.75;;;;;;;;;;5039666;28;20111;-83
2021/03/14 03:52:00;;;;;;;33.30;5.15;;;;;;;;;;5041633;28;20106;-83
2021/03/14 03:54:27;;;;;;;27.40;5.10;;;;;;;;;;5038523;28;20208;-84
2021/03/14 03:56:54;;;;;;;39.42;4.57;;;;;;;;;;5037789;28;20045;-81
2021/03/14 03:59:22;;;;;;;28.25;4.32;;;;;;;;;;5037020;28;20037;-83
2021/03/14 04:01:49;;;;;;;33.50;5.15;;;;;;;;;;5037843;28;20037;-82
2021/03/14 04:04:16;;;;;;;36.15;5.80;;;;;;;;;;5033326;28;20374;-83
2021/03/14 04:06:42;;;;;;;40.42;5.38;;;;;;;;;;5032279;28;20057;-83
2021/03/14 04:09:09;;;;;;;24.80;4.95;;;;;;;;;;5042092;28;20076;-84
2021/03/14 04:11:39;;;;;;;24.58;4.85;;;;;;;;;;5041305;28;20103;-84
2021/03/14 04:14:07;;;;;;;32.97;4.38;;;;;;;;;;5044424;28;20036;-84
2021/03/14 04:16:33;;;;;;;46.30;5.03;;;;;;;;;;5042265;28;20044;-83
2021/03/14 04:19:00;;;;;;;26.70;5.35;;;;;;;;;;5041084;28;20468;-84
2021/03/14 04:21:27;;;;;;;34.78;4.72;;;;;;;;;;5040072;28;20040;-83
2021/03/14 04:23:54;;;;;;;41.28;5.63;;;;;;;;;;5038844;28;20496;-84
2021/03/14 04:26:21;;;;;;;29.95;5.03;;;;;;;;;;5044964;28;20049;-84
2021/03/14 04:28:48;;;;;;;33.70;6.25;;;;;;;;;;5043200;28;20032;-83
2021/03/14 04:31:16;;;;;;;33.53;4.63;;;;;;;;;;5042020;28;20098;-84
2021/03/14 04:33:43;;;;;;;27.77;6.20;;;;;;;;;;5040383;28;20041;-82
2021/03/14 04:36:10;;;;;;;37.25;5.57;;;;;;;;;;5037337;28;20037;-82
2021/03/14 04:38:37;;;;;;;34.40;5.38;;;;;;;;;;5034933;28;21573;-84
2021/03/14 04:41:04;;;;;;;33.20;5.97;;;;;;;;;;5034493;28;20037;-83
2021/03/14 04:43:31;;;;;;;32.85;4.50;;;;;;;;;;5037704;28;20140;-83
2021/03/14 04:45:58;;;;;;;26.77;4.97;;;;;;;;;;5036333;28;20057;-83
2021/03/14 04:48:24;;;;;;;33.15;5.47;;;;;;;;;;5041428;28;20041;-83
2021/03/14 04:50:52;;;;;;;29.75;4.65;;;;;;;;;;5043603;28;20088;-84
2021/03/14 04:53:20;;;;;;;39.75;4.65;;;;;;;;;;5036928;28;20115;-82
2021/03/14 04:55:47;;;;;;;31.00;5.50;;;;;;;;;;5033279;28;20524;-82
2021/03/14 04:58:17;;;;;;;27.48;4.07;;;;;;;;;;5033903;28;20558;-84
2021/03/14 05:00:44;;;;;;;34.85;4.78;;;;;;;;;;5038102;28;20088;-84
2021/03/14 05:03:12;;;;;;;39.30;4.25;;;;;;;;;;5036932;28;20052;-83
2021/03/14 05:05:39;;;;;;;30.52;4.55;;;;;;;;;;5035206;28;20132;-83
2021/03/14 05:08:07;;;;;;;32.17;3.85;;;;;;;;;;5033213;28;20059;-83
2021/03/14 05:10:33;;;;;;;38.60;5.15;;;;;;;;;;5030226;28;20438;-83
2021/03/14 05:13:00;;;;;;;30.58;4.10;;;;;;;;;;5063788;28;20033;-83
2021/03/14 05:15:27;;;;;;;28.23;4.55;;;;;;;;;;5039753;28;20374;-84
2021/03/14 05:17:54;;;;;;;31.38;3.67;;;;;;;;;;5032093;28;20048;-83
2021/03/14 05:20:20;;;;;;;31.13;6.20;;;;;;;;;;5035551;28;20137;-83
2021/03/14 05:22:48;;;;;;;48.72;5.25;;;;;;;;;;5037597;28;20041;-83
2021/03/14 05:25:16;;;;;;;28.83;3.92;;;;;;;;;;5032812;28;20043;-83
2021/03/14 05:27:49;;;;;;;29.83;4.10;;;;;;;;;;5038299;28;20044;-83
2021/03/14 05:30:17;;;;;;;23.48;4.22;;;;;;;;;;5036800;28;20045;-83
2021/03/14 05:32:43;;;;;;;24.08;4.15;;;;;;;;;;5038692;28;20094;-83
2021/03/14 05:35:10;;;;;;;26.70;3.53;;;;;;;;;;5035826;28;20487;-83
2021/03/14 05:37:37;;;;;;;31.48;5.07;;;;;;;;;;5037136;28;20464;-83
2021/03/14 05:40:04;;;;;;;34.55;4.68;;;;;;;;;;5035243;28;20079;-83
2021/03/14 05:42:30;;;;;;;38.88;4.95;;;;;;;;;;5033106;28;20044;-83
2021/03/14 05:44:56;;;;;;;28.23;4.95;;;;;;;;;;5035087;28;20060;-82
2021/03/14 05:47:22;;;;;;;29.60;5.53;;;;;;;;;;5034729;28;20083;-83
2021/03/14 05:49:49;;;;;;;34.03;4.18;;;;;;;;;;5029163;28;20080;-83
2021/03/14 05:52:17;;;;;;;33.50;3.85;;;;;;;;;;5037870;28;20045;-83
2021/03/14 05:54:45;;;;;;;30.15;4.13;;;;;;;;;;5035451;28;20282;-83
2021/03/14 05:57:12;;;;;;;31.58;4.70;;;;;;;;;;5035397;28;20443;-83
2021/03/14 05:59:40;;;;;;;31.40;6.65;;;;;;;;;;5034763;28;20124;-82
2021/03/14 06:02:07;;;;;;;27.60;4.03;;;;;;;;;;5027728;28;20481;-83
2021/03/14 06:04:34;;;;;;;28.67;6.32;;;;;;;;;;5037946;28;20048;-83
2021/03/14 06:07:00;;;;;;;26.70;4.60;;;;;;;;;;5038781;28;20123;-83
2021/03/14 06:09:27;;;;;;;25.95;3.90;;;;;;;;;;5038639;28;20037;-84
2021/03/14 06:11:53;;;;;;;40.80;4.50;;;;;;;;;;5040599;28;20451;-83
2021/03/14 06:14:20;;;;;;;42.42;6.05;;;;;;;;;;5036216;28;20498;-83
2021/03/14 06:16:46;;;;;;;32.63;5.20;;;;;;;;;;5035178;28;20044;-83
2021/03/14 06:19:12;;;;;;;40.45;5.57;;;;;;;;;;5037589;28;20033;-82
2021/03/14 06:21:39;;;;;;;36.63;4.95;;;;;;;;;;5044600;28;20128;-84
2021/03/14 06:24:06;;;;;;;39.25;5.32;;;;;;;;;;5040868;28;20041;-83
2021/03/14 06:26:39;;;;;;;22.17;4.25;;;;;;;;;;5043010;28;20052;-82
2021/03/14 06:29:17;;;;;;;33.30;7.13;;;;;;;;;;5045656;28;20136;-84
2021/03/14 06:31:45;;;;;;;46.85;5.07;;;;;;;;;;5037891;28;20045;-82
2021/03/14 06:34:25;;;;;;;38.92;4.50;;;;;;;;;;5043355;28;20496;-83
2021/03/14 06:36:52;;;;;;;39.08;4.82;;;;;;;;;;5043519;28;20440;-83
2021/03/14 06:39:21;;;;;;;30.17;4.72;;;;;;;;;;5041139;28;20038;-83
2021/03/14 06:41:49;;;;;;;28.77;3.83;;;;;;;;;;5038200;28;20076;-83
2021/03/14 06:44:23;;;;;;;35.17;4.97;;;;;;;;;;5041893;28;20125;-83
2021/03/14 06:46:50;;;;;;;26.77;5.88;;;;;;;;;;5040379;28;20056;-83
2021/03/14 06:49:17;;;;;;;33.15;5.55;;;;;;;;;;5043831;28;20041;-83
2021/03/14 06:51:44;;;;;;;19.60;3.97;;;;;;;;;;5038246;28;20045;-84
2021/03/14 06:54:16;;;;;;;35.92;5.70;;;;;;;;;;5043099;28;20041;-80
2021/03/14 06:56:43;;;;;;;21.48;3.13;;;;;;;;;;5039852;28;20393;-88
2021/03/14 06:59:19;;;;;;;27.27;3.92;;;;;;;;;;5049885;28;20100;-77
2021/03/14 07:01:56;;;;;;;27.30;3.95;;;;;;;;;;5054575;28;20041;-86
2021/03/14 07:04:36;;;;;;;22.92;3.90;;;;;;;;;;5054458;28;20488;-84
2021/03/14 07:07:03;;;;;;;28.77;4.88;;;;;;;;;;5051280;28;20049;-79
2021/03/14 07:09:29;;;;;;;27.08;3.83;;;;;;;;;;5052989;28;20108;-80
2021/03/14 07:11:56;;;;;;;27.85;5.05;;;;;;;;;;5054422;28;20037;-79
2021/03/14 07:14:25;;;;;;;20.05;3.33;;;;;;;;;;5053400;28;20412;-79
2021/03/14 07:16:52;;;;;;;21.77;3.95;;;;;;;;;;5051453;28;20041;-82
2021/03/14 07:19:22;;;;;;;22.52;3.65;;;;;;;;;;5047085;28;20049;-80
2021/03/14 07:21:57;;;;;;;21.83;3.85;;;;;;;;;;5045962;28;20041;-81
2021/03/14 07:24:28;;;;;;;21.38;3.20;;;;;;;;;;5051427;28;20048;-80
2021/03/14 07:26:55;;;;;;;27.60;3.35;;;;;;;;;;5051037;28;20502;-80
2021/03/14 07:29:22;;;;;;;20.88;3.10;;;;;;;;;;5047408;28;20052;-81
2021/03/14 07:31:49;;;;;;;19.35;3.00;;;;;;;;;;5049705;28;20045;-80
2021/03/14 07:34:16;;;;;;;26.27;3.42;;;;;;;;;;5053322;28;20439;-80
2021/03/14 07:36:44;;;;;;;21.90;3.40;;;;;;;;;;5050543;28;20120;-81
2021/03/14 07:39:10;;;;;;;19.73;3.17;;;;;;;;;;5053964;28;20044;-82
2021/03/14 07:41:36;;;;;;;23.27;3.72;;;;;;;;;;5047401;28;20116;-80
2021/03/14 07:44:03;;;;;;;15.88;2.97;;;;;;;;;;5039697;28;20441;-80
2021/03/14 07:46:30;;;;;;;24.10;4.38;;;;;;;;;;5047531;28;20040;-79
2021/03/14 07:48:57;;;;;;;26.90;3.60;;;;;;;;;;5047581;28;20053;-80
2021/03/14 07:51:24;;;;;;;27.02;4.55;;;;;;;;;;5053228;28;20067;-79
2021/03/14 07:53:53;;;;;;;26.20;3.75;;;;;;;;;;5053617;28;20144;-79
2021/03/14 07:56:19;;;;;;;21.98;3.50;;;;;;;;;;5045201;28;20037;-80
2021/03/14 07:58:45;;;;;;;20.23;3.88;;;;;;;;;;5031994;28;20045;-80
2021/03/14 08:01:22;;;;;;;23.10;3.58;;;;;;;;;;5035417;28;20485;-81
2021/03/14 08:03:48;;;;;;;28.85;4.20;;;;;;;;;;5037342;28;20415;-82
2021/03/14 08:06:15;;;;;;;19.27;3.92;;;;;;;;;;5039248;28;20041;-79
2021/03/14 08:08:44;;;;;;;24.05;4.47;;;;;;;;;;5037319;28;20045;-78
2021/03/14 08:11:24;;;;;;;28.23;5.60;;;;;;;;;;5042116;28;20170;-80
2021/03/14 08:13:50;;;;;;;25.88;3.55;;;;;;;;;;5037772;28;20471;-81
2021/03/14 08:16:16;;;;;;;21.30;3.10;;;;;;;;;;5036149;28;20076;-81
2021/03/14 08:18:46;;;;;;;19.08;3.00;;;;;;;;;;5038816;28;20048;-82
2021/03/14 08:21:21;;;;;;;18.20;3.13;;;;;;;;;;5034843;28;20133;-82
2021/03/14 08:23:49;;;;;;;29.60;3.90;;;;;;;;;;5043213;28;20459;-83
2021/03/14 08:26:18;;;;;;;16.00;3.83;;;;;;;;;;5029516;28;20056;-82
2021/03/14 08:28:57;;;;;;;23.27;4.40;;;;;;;;;;5035883;28;20132;-83
2021/03/14 08:31:36;;;;;;;20.20;3.72;;;;;;;;;;5036430;28;20472;-82
2021/03/14 08:34:03;;;;;;;21.42;2.85;;;;;;;;;;5046427;28;20041;-83
2021/03/14 08:36:32;;;;;;;17.67;3.38;;;;;;;;;;5049410;28;20045;-81
2021/03/14 08:38:58;;;;;;;17.63;4.50;;;;;;;;;;5044310;28;20079;-81
2021/03/14 08:41:26;;;;;;;17.77;5.05;;;;;;;;;;5047532;28;20033;-80
2021/03/14 08:43:53;;;;;;;20.83;3.78;;;;;;;;;;5047167;28;20045;-80
2021/03/14 08:46:19;;;;;;;16.58;2.88;;;;;;;;;;5045447;28;20091;-82
2021/03/14 08:48:47;;;;;;;15.65;2.67;;;;;;;;;;5043061;28;20118;-82
2021/03/14 08:51:14;;;;;;;15.15;2.97;;;;;;;;;;5047210;28;20052;-80
2021/03/14 08:53:40;;;;;;;16.15;2.45;;;;;;;;;;5047857;28;20464;-80
2021/03/14 08:56:09;;;;;;;17.92;2.55;;;;;;;;;;5047129;28;20040;-84
2021/03/14 08:58:36;;;;;;;17.50;3.35;;;;;;;;;;5041659;28;20088;-81
2021/03/14 09:01:05;;;;;;;16.95;2.80;;;;;;;;;;5035593;28;20183;-79
2021/03/14 09:03:31;;;;;;;19.13;3.03;;;;;;;;;;5039516;28;20052;-82
2021/03/14 09:06:10;;;;;;;15.77;3.17;;;;;;;;;;5044750;28;20057;-81
2021/03/14 09:08:36;;;;;;;12.63;2.50;;;;;;;;;;5035406;28;20420;-81
2021/03/14 09:11:02;;;;;;;17.33;3.08;;;;;;;;;;5042395;28;20052;-84
2021/03/14 09:13:29;;;;;;;19.65;2.50;;;;;;;;;;5044100;28;20065;-82
2021/03/14 09:15:56;;;;;;;19.83;2.92;;;;;;;;;;5042055;28;20143;-83
2021/03/14 09:18:24;;;;;;;15.90;2.53;;;;;;;;;;5043584;28;20072;-82
2021/03/14 09:20:57;;;;;;;13.57;2.75;;;;;;;;;;5043174;28;20045;-80
2021/03/14 09:23:24;;;;;;;22.48;3.08;;;;;;;;;;5035986;28;20045;-82
2021/03/14 09:25:52;;;;;;;26.30;3.65;;;;;;;;;;5045148;28;20092;-80
2021/03/14 09:28:18;;;;;;;19.58;2.97;;;;;;;;;;5044365;28;20384;-82
2021/03/14 09:30:45;;;;;;;23.23;3.40;;;;;;;;;;5044884;28;20076;-80
2021/03/14 09:33:12;;;;;;;21.80;3.33;;;;;;;;;;5037923;28;20464;-79
2021/03/14 09:35:40;;;;;;;19.40;3.13;;;;;;;;;;5036246;28;20041;-80
2021/03/14 09:38:08;;;;;;;17.70;3.20;;;;;;;;;;5042865;28;20094;-79
2021/03/14 09:40:36;;;;;;;15.20;3.08;;;;;;;;;;5037955;28;20049;-81
2021/03/14 09:43:19;;;;;;;19.95;3.40;;;;;;;;;;5040101;28;20048;-80
2021/03/14 09:45:48;;;;;;;22.40;4.15;;;;;;;;;;5037236;28;20496;-81
2021/03/14 09:48:20;;;;;;;19.42;4.00;;;;;;;;;;5042317;28;20053;-81
2021/03/14 09:50:49;;;;;;;24.92;3.78;;;;;;;;;;5043891;28;20052;-86
2021/03/14 09:53:17;;;;;;;17.85;2.70;;;;;;;;;;5040251;28;20048;-80
2021/03/14 09:55:45;;;;;;;18.92;4.20;;;;;;;;;;5039251;28;20073;-79
2021/03/14 09:58:13;;;;;;;22.27;4.53;;;;;;;;;;5042113;28;20095;-81
2021/03/14 10:00:40;;;;;;;25.08;5.53;;;;;;;;;;5041728;28;20747;-81
2021/03/14 10:03:08;;;;;;;19.25;4.47;;;;;;;;;;5039886;28;20041;-82
2021/03/14 10:05:35;;;;;;;17.77;3.03;;;;;;;;;;5037498;28;20129;-81
2021/03/14 10:08:02;;;;;;;28.85;3.92;;;;;;;;;;5033403;28;20052;-81
2021/03/14 10:10:28;;;;;;;26.77;3.10;;;;;;;;;;5037718;28;20061;-80
2021/03/14 10:12:55;;;;;;;15.98;3.05;;;;;;;;;;5041084;28;20044;-83
2021/03/14 10:15:22;;;;;;;23.13;3.78;;;;;;;;;;5041973;28;20049;-84
2021/03/14 10:17:48;;;;;;;12.57;2.72;;;;;;;;;;5039312;28;20045;-84
2021/03/14 10:20:15;;;;;;;17.20;2.70;;;;;;;;;;5038954;28;20055;-83
2021/03/14 10:22:41;;;;;;;12.32;2.97;;;;;;;;;;5040367;28;20064;-83
2021/03/14 10:25:22;;;;;;;13.18;2.75;;;;;;;;;;5034615;28;20053;-83
2021/03/14 10:27:48;;;;;;;17.05;2.83;;;;;;;;;;5057855;28;20037;-82
2021/03/14 10:30:17;;;;;;;11.38;2.20;;;;;;;;;;5036917;28;20192;-81
2021/03/14 10:32:48;;;;;;;14.25;1.85;;;;;;;;;;5039715;28;20072;-83
2021/03/14 10:35:14;;;;;;;13.60;2.35;;;;;;;;;;5038521;28;20127;-82
2021/03/14 10:37:42;;;;;;;21.52;3.70;;;;;;;;;;5043199;28;20354;-84
2021/03/14 10:40:11;;;;;;;12.60;2.97;;;;;;;;;;5041951;28;20095;-81
2021/03/14 10:42:40;;;;;;;14.32;2.80;;;;;;;;;;5037654;28;20131;-85
2021/03/14 10:45:09;;;;;;;15.57;2.78;;;;;;;;;;5034483;28;20089;-82
2021/03/14 10:47:36;;;;;;;21.33;3.88;;;;;;;;;;5037128;28;20060;-83
2021/03/14 10:50:16;;;;;;;15.63;2.78;;;;;;;;;;5038618;28;20041;-83
2021/03/14 11:38:21;;;;;;;23.63;3.60;;;;;;;;;;5123126;27;20355;-69
2021/03/14 11:40:54;;;;;;;23.17;4.07;;;;;;;;;;5100394;28;20125;-69
2021/03/14 11:43:20;;;;;;;17.25;3.00;;;;;;;;;;5102717;28;20057;-69
2021/03/14 11:45:46;;;;;;;19.42;3.17;;;;;;;;;;5100525;28;20044;-69
2021/03/14 11:48:13;;;;;;;22.73;3.58;;;;;;;;;;5096844;28;20047;-69
2021/03/14 11:50:40;;;;;;;19.65;3.33;;;;;;;;;;5100319;28;20418;-69
2021/03/14 11:53:07;;;;;;;17.92;3.20;;;;;;;;;;5101936;28;20509;-68
2021/03/14 11:55:33;;;;;;;16.92;2.80;;;;;;;;;;5103238;28;20070;-69
2021/03/14 11:57:59;;;;;;;21.92;4.15;;;;;;;;;;5100348;28;20048;-68
2021/03/14 12:00:26;;;;;;;23.00;4.18;;;;;;;;;;5103019;28;20453;-68
2021/03/14 12:02:52;;;;;;;16.02;3.42;;;;;;;;;;5099878;28;20072;-68
2021/03/14 12:05:20;;;;;;;21.45;3.67;;;;;;;;;;5098971;28;20502;-68
2021/03/14 12:07:46;;;;;;;20.38;3.50;;;;;;;;;;5103034;28;20063;-66
2021/03/14 12:10:13;;;;;;;13.65;2.58;;;;;;;;;;5103285;28;20134;-66
2021/03/14 12:12:39;;;;;;;15.07;2.53;;;;;;;;;;5100354;28;20056;-67
2021/03/14 12:15:06;;;;;;;20.88;3.92;;;;;;;;;;5098426;28;20031;-67
2021/03/14 12:17:33;;;;;;;21.15;2.67;;;;;;;;;;5100850;28;20410;-68
2021/03/14 12:19:59;;;;;;;15.55;3.22;;;;;;;;;;5099167;28;20048;-68
2021/03/14 12:22:25;;;;;;;17.60;2.33;;;;;;;;;;5100786;28;20047;-67
2021/03/14 12:24:52;;;;;;;14.88;2.35;;;;;;;;;;5107422;28;20035;-67
2021/03/14 12:27:18;;;;;;;8.20;2.47;;;;;;;;;;5104742;28;20047;-68
2021/03/14 12:29:44;;;;;;;15.02;3.20;;;;;;;;;;5106281;28;20044;-67
2021/03/14 12:32:11;;;;;;;20.17;2.67;;;;;;;;;;5100216;28;20036;-67
2021/03/14 12:34:37;;;;;;;14.43;2.70;;;;;;;;;;5098748;28;20062;-67
2021/03/14 12:37:04;;;;;;;13.45;2.40;;;;;;;;;;5097705;28;20048;-68
2021/03/14 12:39:30;;;;;;;15.70;2.13;;;;;;;;;;5098733;28;20056;-67
2021/03/14 12:41:57;;;;;;;14.32;3.03;;;;;;;;;;5098304;28;20127;-67
2021/03/14 12:44:24;;;;;;;17.98;2.45;;;;;;;;;;5098881;28;20143;-67
2021/03/14 12:46:50;;;;;;;15.45;2.88;;;;;;;;;;5095964;28;20052;-67
2021/03/14 12:49:16;;;;;;;12.85;2.30;;;;;;;;;;5089071;28;20031;-69
2021/03/14 12:51:43;;;;;;;17.80;2.45;;;;;;;;;;5088360;28;20064;-68
2021/03/14 12:54:09;;;;;;;14.32;3.20;;;;;;;;;;5088726;28;20119;-68
2021/03/14 12:56:35;;;;;;;13.27;2.80;;;;;;;;;;5093044;28;20040;-67
2021/03/14 12:59:02;;;;;;;12.38;2.50;;;;;;;;;;5098554;28;20048;-68
2021/03/14 13:01:28;;;;;;;14.15;2.83;;;;;;;;;;5085844;28;21680;-68
2021/03/14 13:03:55;;;;;;;9.93;2.20;;;;;;;;;;5091627;28;20501;-68
2021/03/14 13:06:21;;;;;;;15.85;3.28;;;;;;;;;;5087550;28;20568;-68
2021/03/14 13:08:47;;;;;;;13.55;2.83;;;;;;;;;;5086385;28;20142;-68
2021/03/14 13:11:14;;;;;;;21.90;3.13;;;;;;;;;;5078553;28;20048;-68
2021/03/14 13:13:40;;;;;;;15.35;3.00;;;;;;;;;;5084388;28;20475;-68
2021/03/14 13:16:06;;;;;;;22.08;3.65;;;;;;;;;;5081429;28;20506;-68
2021/03/14 13:18:33;;;;;;;15.98;2.58;;;;;;;;;;5077733;28;20122;-68
2021/03/14 13:20:59;;;;;;;14.95;3.03;;;;;;;;;;5085656;28;20386;-68
2021/03/14 13:23:32;;;;;;;23.10;3.10;;;;;;;;;;5084238;28;20044;-68
2021/03/14 13:25:59;;;;;;;19.47;4.23;;;;;;;;;;5082562;28;20585;-67
2021/03/14 13:28:26;;;;;;;22.30;3.47;;;;;;;;;;5086153;28;20734;-68
2021/03/14 13:30:52;;;;;;;19.40;3.88;;;;;;;;;;5085095;28;20040;-68
2021/03/14 13:33:18;;;;;;;19.13;3.83;;;;;;;;;;5086284;28;20046;-79
2021/03/14 13:35:45;;;;;;;21.70;3.47;;;;;;;;;;5083506;28;20079;-69
2021/03/14 13:38:11;;;;;;;17.90;3.45;;;;;;;;;;5085263;28;20052;-68
2021/03/14 13:40:37;;;;;;;20.67;3.47;;;;;;;;;;5084270;28;20062;-68
2021/03/14 13:43:04;;;;;;;20.83;2.90;;;;;;;;;;5084395;28;20048;-68
2021/03/14 13:45:32;;;;;;;22.77;4.53;;;;;;;;;;5085907;28;20035;-68
2021/03/14 13:47:58;;;;;;;26.10;4.38;;;;;;;;;;5093505;27;20040;-69
2021/03/14 13:50:24;;;;;;;25.90;3.22;;;;;;;;;;5094398;28;20116;-68
2021/03/14 13:52:51;;;;;;;21.70;3.28;;;;;;;;;;5086628;28;20054;-69
2021/03/14 15:48:36;;;;;;;28.77;4.35;;;;;;;;;;5100556;27;20383;-71
2021/03/14 15:59:18;;;;;;;34.83;4.38;;;;;;;;;;5116456;27;20421;-70
2021/03/14 16:01:45;;;;;;;24.85;3.85;;;;;;;;;;5114941;28;20097;-70
2021/03/14 16:04:12;;;;;;;28.40;4.07;;;;;;;;;;5121754;28;20047;-70
2021/03/14 16:06:39;;;;;;;27.40;4.25;;;;;;;;;;5123623;27;20047;-70
2021/03/14 16:09:06;;;;;;;26.58;3.88;;;;;;;;;;5118925;28;20126;-70
2021/03/14 16:11:32;;;;;;;25.95;3.70;;;;;;;;;;5116333;28;20043;-69
2021/03/14 16:13:58;;;;;;;20.48;4.47;;;;;;;;;;5117438;28;20059;-69
2021/03/14 16:16:26;;;;;;;24.58;4.53;;;;;;;;;;5122768;27;20425;-70
2021/03/14 16:18:52;;;;;;;33.30;5.20;;;;;;;;;;5121636;28;20100;-70
2021/03/14 16:21:19;;;;;;;21.83;4.00;;;;;;;;;;5121276;28;20044;-70
2021/03/14 16:23:46;;;;;;;26.25;3.78;;;;;;;;;;5118674;28;20039;-70
2021/03/14 16:26:12;;;;;;;32.15;4.10;;;;;;;;;;5114520;28;20081;-70
2021/03/14 16:28:38;;;;;;;26.85;4.47;;;;;;;;;;5117223;28;20058;-70
2021/03/14 16:31:05;;;;;;;22.83;4.50;;;;;;;;;;5114790;28;20065;-69
2021/03/14 16:33:31;;;;;;;27.58;4.32;;;;;;;;;;5118713;28;20100;-69
2021/03/14 16:35:59;;;;;;;25.65;3.05;;;;;;;;;;5121709;28;20120;-75
2021/03/14 16:38:29;;;;;;;21.35;4.05;;;;;;;;;;5117762;28;20043;-74
2021/03/14 16:40:55;;;;;;;22.38;3.60;;;;;;;;;;5123166;28;20035;-74
2021/03/14 16:43:22;;;;;;;24.27;4.60;;;;;;;;;;5115224;28;20393;-74
2021/03/14 16:45:48;;;;;;;21.67;3.47;;;;;;;;;;5114851;28;20043;-74
2021/03/14 16:48:14;;;;;;;19.50;3.65;;;;;;;;;;5120614;28;20073;-74
2021/03/14 16:50:41;;;;;;;26.85;3.75;;;;;;;;;;5112830;28;20078;-74
2021/03/14 16:53:07;;;;;;;28.25;4.18;;;;;;;;;;5118397;28;20695;-74
2021/03/14 16:55:33;;;;;;;31.50;4.85;;;;;;;;;;5133109;27;20122;-74
2021/03/14 16:58:00;;;;;;;23.75;4.75;;;;;;;;;;5117091;28;20147;-75
2021/03/14 17:00:26;;;;;;;24.50;4.43;;;;;;;;;;5119776;28;20100;-74
2021/03/14 17:02:53;;;;;;;20.63;4.63;;;;;;;;;;5118516;28;20466;-83
2021/03/14 17:05:19;;;;;;;25.05;5.10;;;;;;;;;;5116152;28;20039;-85
2021/03/14 17:07:46;;;;;;;28.80;5.53;;;;;;;;;;5110975;28;20097;-73
2021/03/14 17:10:12;;;;;;;20.80;3.47;;;;;;;;;;5108544;28;20705;-73
2021/03/14 17:12:39;;;;;;;27.08;4.15;;;;;;;;;;5108216;28;20355;-72
2021/03/14 17:15:06;;;;;;;22.48;4.35;;;;;;;;;;5107694;28;20043;-72
2021/03/14 17:17:32;;;;;;;23.52;4.00;;;;;;;;;;5107852;28;20074;-72
2021/03/14 17:19:58;;;;;;;29.70;3.38;;;;;;;;;;5104693;28;20728;-72